createdAt,value
2018-12-18T05:59:40.219Z,100
2018-12-18T06:00:52.414Z,99.1
2018-12-18T06:02:04.664Z,98.6
2018-12-18T06:05:41.141Z,97.6
2018-12-18T06:06:53.301Z,96.9
2018-12-18T06:08:05.574Z,96.2
2018-12-18T06:09:17.824Z,95.8
2018-12-18T06:10:29.970Z,95.4
2018-12-18T06:11:42.089Z,95.4
2018-12-18T06:12:54.283Z,95.5
2018-12-18T06:14:06.555Z,95.3
2018-12-18T06:15:20.250Z,95
2018-12-18T06:17:43.112Z,95.4
2018-12-18T06:18:55.339Z,95
2018-12-18T06:20:07.453Z,94.5
2018-12-18T06:21:19.726Z,94.7
2018-12-18T06:22:31.849Z,94.7
2018-12-18T06:23:44.033Z,94.6
2018-12-18T06:24:56.228Z,94.4
2018-12-18T06:26:08.526Z,94.3
2018-12-18T06:27:20.614Z,94.4
2018-12-18T06:29:45.114Z,94.4
2018-12-18T06:30:57.211Z,94.5
2018-12-18T06:32:09.499Z,94.7
2018-12-18T06:33:21.665Z,94.7
2018-12-18T06:34:33.889Z,94.6
2018-12-18T06:35:45.980Z,94.5
2018-12-18T06:36:58.242Z,94.4
2018-12-18T06:38:10.436Z,94.5
2018-12-18T06:39:22.559Z,94.3
2018-12-18T06:41:47.058Z,94.3
2018-12-18T06:42:59.232Z,94.3
2018-12-18T06:44:11.349Z,94.4
2018-12-18T06:45:23.631Z,94.3
2018-12-18T06:46:35.756Z,94.2
2018-12-18T06:47:48.033Z,94.2
2018-12-18T06:49:00.135Z,94.1
2018-12-18T06:50:12.336Z,94
2018-12-18T06:51:24.525Z,94.1
2018-12-18T06:52:36.781Z,94.1
2018-12-18T06:53:48.985Z,94
2018-12-18T06:55:01.318Z,93.5
2018-12-18T06:56:13.301Z,93.6
2018-12-18T06:57:25.497Z,94.1
2018-12-18T06:58:37.690Z,94.2
2018-12-18T06:59:49.978Z,94.3
2018-12-18T07:01:02.198Z,94.2
2018-12-18T07:02:14.288Z,94.3
2018-12-18T07:03:26.512Z,94.2
2018-12-18T07:05:50.860Z,94.1
2018-12-18T07:07:03.069Z,94.2
2018-12-18T07:08:15.371Z,94.3
2018-12-18T07:09:27.562Z,94.5
2018-12-18T07:10:39.664Z,94.2
2018-12-18T07:11:51.850Z,94.3
2018-12-18T07:14:16.439Z,94.4
2018-12-18T07:15:28.439Z,94.5
2018-12-18T07:17:52.884Z,94.5
2018-12-18T07:19:05.111Z,94.1
2018-12-18T07:20:17.323Z,93.9
2018-12-18T07:21:29.416Z,94
2018-12-18T07:22:41.614Z,94.3
2018-12-18T07:23:53.875Z,93.7
2018-12-18T07:25:06.011Z,93.9
2018-12-18T07:26:18.463Z,93.6
2018-12-18T07:27:30.383Z,93.7
2018-12-18T07:29:54.842Z,93.8
2018-12-18T07:31:06.970Z,93.9
2018-12-18T07:32:19.195Z,94.1
2018-12-18T07:33:31.378Z,93.5
2018-12-18T07:34:43.633Z,93.8
2018-12-18T07:35:55.756Z,93.9
2018-12-18T07:37:07.958Z,93.9
2018-12-18T07:38:20.211Z,93.9
2018-12-18T07:39:32.468Z,94.1
2018-12-18T07:40:44.604Z,94.3
2018-12-18T07:41:56.727Z,93.9
2018-12-18T07:43:08.929Z,93.6
2018-12-18T07:45:33.340Z,94
2018-12-18T07:46:45.598Z,93.8
2018-12-18T07:47:57.796Z,93.5
2018-12-18T07:49:10.071Z,93.5
2018-12-18T07:50:22.096Z,93.8
2018-12-18T07:51:34.364Z,93.9
2018-12-18T07:53:58.695Z,93.7
2018-12-18T07:55:13.156Z,93.9
2018-12-18T07:56:23.156Z,94
2018-12-18T07:57:35.298Z,94
2018-12-18T07:58:47.479Z,94.5
2018-12-18T07:59:59.741Z,94.6
2018-12-18T08:01:11.859Z,94.7
2018-12-18T08:02:24.180Z,94.8
2018-12-18T08:03:36.302Z,94.7
2018-12-18T08:06:00.718Z,95
2018-12-18T08:07:12.994Z,95
2018-12-18T08:08:25.035Z,95
2018-12-18T08:09:37.290Z,95.1
2018-12-18T08:10:49.522Z,95.1
2018-12-18T08:12:01.618Z,95
2018-12-18T08:13:13.899Z,95.1
2018-12-18T08:14:26.079Z,95.1
2018-12-18T08:15:38.284Z,95
2018-12-18T08:18:02.672Z,95
2018-12-18T08:19:14.871Z,94.9
2018-12-18T08:20:27.076Z,94.9
2018-12-18T08:21:39.390Z,94.8
2018-12-18T08:22:51.449Z,94.8
2018-12-18T08:24:03.570Z,94.8
2018-12-18T08:25:15.772Z,94.7
2018-12-18T08:26:27.971Z,94.7
2018-12-18T08:27:40.235Z,94.6
2018-12-18T08:30:04.566Z,94.5
2018-12-18T08:31:16.749Z,94.3
2018-12-18T08:32:29.025Z,94.3
2018-12-18T08:33:41.167Z,94.3
2018-12-18T08:34:53.427Z,94.3
2018-12-18T08:36:05.611Z,94
2018-12-18T08:37:17.725Z,93.9
2018-12-18T08:38:29.917Z,93.8
2018-12-18T08:39:42.109Z,93.7
2018-12-18T08:42:06.494Z,93
2018-12-18T08:43:18.770Z,92.7
2018-12-18T08:44:30.966Z,93.2
2018-12-18T08:45:43.339Z,93.4
2018-12-18T08:46:55.356Z,93.8
2018-12-18T08:48:07.573Z,93.8
2018-12-18T08:49:19.751Z,93
2018-12-18T08:50:31.971Z,91.9
2018-12-18T08:51:44.142Z,90.9
2018-12-18T08:54:08.464Z,90.4
2018-12-18T08:55:20.647Z,91.2
2018-12-18T08:56:32.945Z,92
2018-12-18T08:57:45.118Z,91.5
2018-12-18T08:58:57.328Z,90.9
2018-12-18T09:00:09.446Z,91
2018-12-18T09:01:21.702Z,91.7
2018-12-18T09:02:33.915Z,91.8
2018-12-18T09:03:46.020Z,92.3
2018-12-18T09:06:10.403Z,91.8
2018-12-18T09:07:22.612Z,91.2
2018-12-18T09:08:34.882Z,91
2018-12-18T09:09:47.067Z,90.7
2018-12-18T09:10:59.204Z,91
2018-12-18T09:12:11.460Z,91
2018-12-18T09:13:23.594Z,90.6
2018-12-18T09:14:35.947Z,89.3
2018-12-18T09:18:12.440Z,86.1
2018-12-18T09:19:24.659Z,84.4
2018-12-18T09:20:36.758Z,83
2018-12-18T09:21:49.023Z,83.2
2018-12-18T09:23:01.215Z,82.7
2018-12-18T09:24:13.426Z,82.1
2018-12-18T09:25:25.610Z,81.1
2018-12-18T09:26:37.741Z,80.6
2018-12-18T09:27:50.010Z,79.3
